Time;durP1;ratioP1;P1;durP2;ratioP2;P2;SDS_P1;SDS_P2;PMS_P1;PMS_P2;Temp;Humidity;BMP_temperature;BMP_pressure;BME280_temperature;BME280_humidity;BME280_pressure;Samples;Min_cycle;Max_cycle;Signal;HPM_P1;HPM_P2
2022/08/09 00:00:00;;;;;;;;;;;;;;;-145.18;100.00;46660.41;4994351;28;19917;-69
2022/08/09 00:02:25;;;;;;;;;;;;;;;-145.18;100.00;46660.41;4993221;28;19922;-69
2022/08/09 00:04:51;;;;;;;;;;;;;;;-145.18;100.00;46660.41;4993706;28;20011;-69
2022/08/09 00:07:16;;;;;;;;;;;;;;;-145.18;100.00;46638.91;4993374;28;20013;-69
2022/08/09 00:09:41;;;;;;;;;;;;;;;-145.18;100.00;46676.03;4993841;28;19968;-69
2022/08/09 00:12:07;;;;;;;;;;;;;;;-145.18;100.00;46660.41;4993625;28;19917;-69
2022/08/09 00:14:33;;;;;;;;;;;;;;;-145.18;100.00;46677.97;4993419;28;19924;-69
2022/08/09 00:16:58;;;;;;;;;;;;;;;-145.18;100.00;46660.41;4993385;28;19968;-69
2022/08/09 00:19:23;;;;;;;;;;;;;;;-145.18;100.00;46660.41;4993642;28;19920;-69
2022/08/09 00:21:48;;;;;;;;;;;;;;;-145.18;100.00;46660.41;4993203;28;19918;-69
2022/08/09 00:24:14;;;;;;;;;;;;;;;-145.18;100.00;46660.41;4993708;28;19924;-69
2022/08/09 00:26:39;;;;;;;;;;;;;;;-145.18;100.00;46660.41;4992740;28;20016;-69
2022/08/09 00:29:04;;;;;;;;;;;;;;;-145.18;100.00;46660.41;4993514;28;19949;-69
2022/08/09 00:31:30;;;;;;;;;;;;;;;-145.18;100.00;46660.41;4993056;28;19921;-69
2022/08/09 00:33:55;;;;;;;;;;;;;;;-145.18;100.00;46660.41;4993551;28;20333;-69
2022/08/09 00:36:21;;;;;;;;;;;;;;;-145.18;100.00;46660.41;4975214;28;20374;-69
2022/08/09 00:38:46;;;;;;;;;;;;;;;-145.18;100.00;46660.41;4993390;28;19918;-70
2022/08/09 00:41:12;;;;;;;;;;;;;;;-145.18;100.00;46660.41;4975581;28;19936;-70
2022/08/09 00:43:39;;;;;;;;;;;;;;;-145.18;100.00;46660.41;4993087;28;19921;-70
2022/08/09 00:46:04;;;;;;;;;;;;;;;-145.18;100.00;46660.41;4993195;28;20008;-70
2022/08/09 00:48:30;;;;;;;;;;;;;;;-145.18;100.00;46660.41;4992706;28;20410;-70
2022/08/09 00:50:55;;;;;;;;;;;;;;;-145.18;100.00;46660.41;4993253;28;20310;-69
2022/08/09 00:53:21;;;;;;;;;;;;;;;-145.18;100.00;46660.41;4992557;28;20027;-70
2022/08/09 00:55:46;;;;;;;;;;;;;;;-145.18;100.00;46660.41;4993156;28;19917;-70
2022/08/09 00:58:11;;;;;;;;;;;;;;;-145.18;100.00;46660.41;4992623;28;20437;-69
2022/08/09 01:00:39;;;;;;;;;;;;;;;-145.18;100.00;46660.41;4992643;28;19996;-69
2022/08/09 01:03:13;;;;;;;;;;;;;;;-145.18;100.00;46660.41;4992405;28;19925;-69
2022/08/09 01:05:42;;;;;;;;;;;;;;;-145.18;100.00;46660.41;4992563;28;20445;-69
2022/08/09 01:08:13;;;;;;;;;;;;;;;-145.18;100.00;46660.41;4992317;28;19917;-69
2022/08/09 01:10:38;;;;;;;;;;;;;;;-145.18;100.00;46660.41;4992747;28;20437;-69
2022/08/09 01:13:11;;;;;;;;;;;;;;;-145.18;100.00;46660.41;4992421;28;19921;-69
2022/08/09 01:15:39;;;;;;;;;;;;;;;-145.18;100.00;46660.41;4991816;28;20008;-70
2022/08/09 01:18:07;;;;;;;;;;;;;;;-145.18;100.00;46660.41;4992387;28;20362;-69
2022/08/09 01:20:47;;;;;;;;;;;;;;;-145.18;100.00;46660.41;4992391;28;19922;-72
2022/08/09 01:23:31;;;;;;;;;;;;;;;-145.18;100.00;46660.41;4992287;28;19917;-69
2022/08/09 01:25:59;;;;;;;;;;;;;;;-145.18;100.00;46660.41;4992645;28;19918;-69
2022/08/09 01:28:25;;;;;;;;;;;;;;;-145.18;100.00;46660.41;4991865;28;19914;-69
2022/08/09 01:30:52;;;;;;;;;;;;;;;-145.18;100.00;46660.41;4992472;28;20338;-71
2022/08/09 01:33:20;;;;;;;;;;;;;;;-145.18;100.00;46660.41;4992119;28;19913;-71
2022/08/09 01:35:48;;;;;;;;;;;;;;;-145.18;100.00;46660.41;4992403;28;19940;-71
2022/08/09 01:38:18;;;;;;;;;;;;;;;-145.18;100.00;46660.41;4991935;28;19917;-71
2022/08/09 01:40:46;;;;;;;;;;;;;;;-145.18;100.00;46660.41;4992048;28;19921;-71
2022/08/09 01:43:12;;;;;;;;;;;;;;;-145.18;100.00;46660.41;4991671;28;20001;-71
2022/08/09 01:45:39;;;;;;;;;;;;;;;-145.18;100.00;46660.41;4992144;28;20016;-71
2022/08/09 01:48:05;;;;;;;;;;;;;;;-145.18;100.00;46660.41;4991913;28;20350;-71
2022/08/09 01:50:30;;;;;;;;;;;;;;;-145.18;100.00;46660.41;4991815;28;20003;-71
2022/08/09 01:52:56;;;;;;;;;;;;;;;-145.18;100.00;46660.41;4991773;28;20016;-71
2022/08/09 01:55:23;;;;;;;;;;;;;;;-145.18;100.00;46660.41;4991928;28;19922;-71
2022/08/09 01:57:50;;;;;;;;;;;;;;;-145.18;100.00;46660.41;4991445;28;19929;-71
2022/08/09 02:03:26;;;;;;;;;;;;;;;-145.18;100.00;46660.41;5202675;23;20345;-71
2022/08/09 02:10:04;;;;;;;;;;;;;;;-145.18;100.00;46660.41;5011748;28;19920;-70
2022/08/09 02:13:34;;;;;;;;;;;;;;;-145.18;100.00;46658.44;5009848;28;19913;-70
2022/08/09 02:20:16;;;;;;;;;;;;;;;-145.18;100.00;46660.41;5011397;28;19924;-70
2022/08/09 02:23:23;;;;;;;;;;;;;;;-145.18;100.00;46660.41;5010766;28;19913;-71
2022/08/09 02:30:14;;;;;;;;;;;;;;;-145.18;100.00;46660.41;5011150;28;20392;-71
2022/08/09 02:33:44;;;;;;;;;;;;;;;-145.18;100.00;46660.41;5010405;28;20182;-70
2022/08/09 02:37:10;;;;;;;;;;;;;;;-145.18;100.00;46660.41;5011143;28;19913;-70
2022/08/09 02:40:36;;;;;;;;;;;;;;;-145.18;100.00;46660.41;5011108;28;19917;-71
2022/08/09 02:44:01;;;;;;;;;;;;;;;-145.18;100.00;46658.44;5010741;28;19913;-70
2022/08/09 02:50:29;;;;;;;;;;;;;;;-145.18;100.00;46656.50;5010928;28;20033;-71
2022/08/09 02:53:57;;;;;;;;;;;;;;;-145.18;100.00;46660.41;5010593;28;20670;-71
2022/08/09 02:57:21;;;;;;;;;;;;;;;-145.18;100.00;46660.41;4980206;28;19917;-71
2022/08/09 13:36:05;;;;;;;;;;;;;;;-145.18;86.61;46924.09;5108640;27;19916;-73
2022/08/09 13:38:31;;;;;;;;;;;;;;;-145.18;87.60;46906.53;5108902;28;20345;-73
2022/08/09 13:40:57;;;;;;;;;;;;;;;-145.18;93.64;46916.28;5108659;28;19920;-73
2022/08/09 13:43:22;;;;;;;;;;;;;;;-145.18;86.68;46928.00;5108630;28;19920;-73
2022/08/09 13:45:48;;;;;;;;;;;;;;;-145.18;85.72;46929.97;5108590;28;19916;-73
2022/08/09 13:48:13;;;;;;;;;;;;;;;-145.18;89.26;46912.38;5108685;28;20137;-73
2022/08/09 13:50:38;;;;;;;;;;;;;;;-145.18;93.19;46910.44;5108500;28;20016;-73
2022/08/09 13:53:03;;;;;;;;;;;;;;;-145.18;91.79;46906.53;5108405;28;19966;-73
2022/08/09 13:55:28;;;;;;;;;;;;;;;-145.18;94.71;46892.84;5108384;28;20026;-73
2022/08/09 13:57:54;;;;;;;;;;;;;;;-145.18;86.37;46918.25;5108674;28;19963;-73
2022/08/09 14:00:19;;;;;;;;;;;;;;;-145.18;92.46;46920.19;5108142;28;19963;-73
2022/08/09 14:02:46;;;;;;;;;;;;;;;-145.18;93.32;46908.47;5108424;28;19920;-73
2022/08/09 14:05:11;;;;;;;;;;;;;;;-145.18;90.79;46881.13;5107954;28;19927;-73
2022/08/09 14:07:36;;;;;;;;;;;;;;;-145.18;81.54;46912.38;5108443;28;19924;-72
2022/08/09 14:10:03;;;;;;;;;;;;;;;-145.18;81.38;46910.44;5107937;28;20460;-73
2022/08/09 14:12:28;;;;;;;;;;;;;;;-145.18;93.10;46906.53;5108370;28;19960;-73
2022/08/09 14:14:53;;;;;;;;;;;;;;;-145.18;90.16;46912.38;5107702;28;19979;-73
2022/08/09 14:17:18;;;;;;;;;;;;;;;-145.18;86.34;46912.38;5107924;28;19952;-73
2022/08/09 14:19:44;;;;;;;;;;;;;;;-145.18;86.34;46912.38;5107949;28;19923;-73
2022/08/09 14:22:09;;;;;;;;;;;;;;;-145.18;86.91;46916.28;5107959;28;19980;-73
2022/08/09 14:24:34;;;;;;;;;;;;;;;-145.18;94.32;46888.94;5107684;28;20022;-73
2022/08/09 14:26:59;;;;;;;;;;;;;;;-145.18;85.99;46890.91;5108112;28;20022;-73
2022/08/09 14:29:25;;;;;;;;;;;;;;;-145.18;87.98;46883.09;5107515;28;20269;-73
2022/08/09 14:31:51;;;;;;;;;;;;;;;-145.18;90.75;46879.19;5108102;28;20383;-73
2022/08/09 14:34:16;;;;;;;;;;;;;;;-145.18;79.40;46879.19;5107059;28;19932;-73
2022/08/09 14:36:42;;;;;;;;;;;;;;;-145.18;82.47;46877.22;5107978;28;20050;-73
2022/08/09 14:39:07;;;;;;;;;;;;;;;-145.18;83.39;46869.41;5107152;28;20303;-74
2022/08/09 14:41:32;;;;;;;;;;;;;;;-145.18;76.63;46865.50;5107909;28;19942;-73
2022/08/09 14:43:57;;;;;;;;;;;;;;;-145.18;77.31;46865.50;5107345;28;20394;-73
2022/08/09 14:46:23;;;;;;;;;;;;;;;-145.18;78.25;46865.50;5099782;28;19927;-73
2022/08/09 14:48:48;;;;;;;;;;;;;;;-145.18;73.57;46867.44;5094322;28;19920;-73
2022/08/09 14:51:13;;;;;;;;;;;;;;;-145.18;72.32;46865.50;5093443;28;19954;-73
2022/08/09 14:53:39;;;;;;;;;;;;;;;-145.18;75.64;46877.22;5092589;28;20232;-73
2022/08/09 14:56:05;;;;;;;;;;;;;;;-145.18;75.29;46865.50;5093596;28;19920;-73
2022/08/09 14:58:30;;;;;;;;;;;;;;;-145.18;76.58;46894.81;5093936;28;20389;-73
2022/08/09 15:00:57;;;;;;;;;;;;;;;-145.18;76.31;46875.28;5093384;28;19924;-73
2022/08/09 15:03:22;;;;;;;;;;;;;;;-145.18;78.03;46865.50;5093436;28;20347;-73
2022/08/09 15:05:48;;;;;;;;;;;;;;;-145.18;78.61;46861.59;5093353;28;19971;-73
2022/08/09 15:08:13;;;;;;;;;;;;;;;-145.18;72.63;46883.09;5093490;28;20398;-73
2022/08/09 15:10:38;;;;;;;;;;;;;;;-145.18;80.60;46890.91;5093536;28;20391;-73
2022/08/09 15:13:04;;;;;;;;;;;;;;;-145.18;82.37;46922.16;5093805;28;20383;-73
2022/08/09 15:15:30;;;;;;;;;;;;;;;-145.18;84.68;46939.72;5092724;28;20329;-73
2022/08/09 15:17:55;;;;;;;;;;;;;;;-145.18;84.68;46922.16;5093669;28;19974;-74
2022/08/09 15:20:21;;;;;;;;;;;;;;;-145.18;80.03;46887.00;5092620;28;19920;-73
2022/08/09 15:22:47;;;;;;;;;;;;;;;-145.18;79.58;46883.09;5093444;28;19923;-74
2022/08/09 15:25:12;;;;;;;;;;;;;;;-145.18;82.05;46871.38;5092846;28;19931;-74
2022/08/09 15:27:37;;;;;;;;;;;;;;;-145.18;72.18;46871.38;5093164;28;20007;-74
2022/08/09 15:30:03;;;;;;;;;;;;;;;-145.18;76.54;46865.50;5092989;28;20018;-74
2022/08/09 15:32:29;;;;;;;;;;;;;;;-145.18;78.62;46857.69;5092934;28;19913;-73
2022/08/09 15:34:54;;;;;;;;;;;;;;;-145.18;75.18;46844.00;5092591;28;19928;-73
2022/08/09 15:37:35;;;;;;;;;;;;;;;-145.18;69.84;46830.34;5092784;28;19927;-74
2022/08/09 15:40:02;;;;;;;;;;;;;;;-145.18;69.55;46822.53;5092789;28;20003;-74
2022/08/09 15:42:27;;;;;;;;;;;;;;;-145.18;68.18;46808.84;5092751;28;20445;-73
2022/08/09 15:44:57;;;;;;;;;;;;;;;-145.18;65.88;46812.75;5092593;28;19970;-73
2022/08/09 15:47:22;;;;;;;;;;;;;;;-145.18;66.68;46795.19;5092568;28;20015;-74
2022/08/09 15:49:47;;;;;;;;;;;;;;;-145.18;68.77;46818.63;5092776;28;20066;-73
2022/08/09 15:52:12;;;;;;;;;;;;;;;-145.18;67.23;46804.94;5092757;28;19924;-73
2022/08/09 15:54:38;;;;;;;;;;;;;;;-145.18;66.38;46801.03;5092234;28;20270;-74
2022/08/09 15:57:03;;;;;;;;;;;;;;;-145.18;62.24;46789.31;5092209;28;19920;-73
2022/08/09 15:59:28;;;;;;;;;;;;;;;-145.18;60.02;46777.59;5091587;28;19928;-75
2022/08/09 16:01:54;;;;;;;;;;;;;;;-145.18;59.42;46758.06;5092615;28;19964;-73
2022/08/09 16:04:19;;;;;;;;;;;;;;;-145.18;58.15;46779.56;5091989;28;19928;-74
2022/08/09 16:06:44;;;;;;;;;;;;;;;-145.18;57.53;46771.75;5092484;28;19920;-73
2022/08/09 16:09:10;;;;;;;;;;;;;;;-145.18;55.70;46765.88;5092344;28;19923;-73
2022/08/09 16:11:35;;;;;;;;;;;;;;;-145.18;57.60;46769.78;5090931;28;19920;-73
2022/08/09 16:14:05;;;;;;;;;;;;;;;-145.18;58.22;46777.59;5092351;28;19924;-73
2022/08/09 16:16:30;;;;;;;;;;;;;;;-145.18;60.91;46791.28;5091872;28;20394;-73
2022/08/09 16:18:55;;;;;;;;;;;;;;;-145.18;61.77;46789.31;5092363;28;19924;-73
2022/08/09 16:21:21;;;;;;;;;;;;;;;-145.18;61.34;46785.41;5091393;28;19924;-73
2022/08/09 16:23:46;;;;;;;;;;;;;;;-145.18;59.29;46793.22;5092293;28;19916;-73
2022/08/09 16:26:11;;;;;;;;;;;;;;;-145.18;61.26;46783.47;5091601;28;20042;-73
2022/08/09 16:28:36;;;;;;;;;;;;;;;-145.18;71.47;46801.03;5092070;28;19920;-73
2022/08/09 16:31:02;;;;;;;;;;;;;;;-145.18;70.52;46799.09;5091935;28;20440;-73
2022/08/09 16:33:27;;;;;;;;;;;;;;;-145.18;74.34;46808.84;5091819;28;20281;-73
2022/08/09 16:35:52;;;;;;;;;;;;;;;-145.18;82.92;46873.31;5091325;28;19928;-72
2022/08/09 16:38:18;;;;;;;;;;;;;;;-145.18;92.62;46890.91;5091876;28;20261;-73
2022/08/09 16:40:43;;;;;;;;;;;;;;;-145.18;100.00;46906.53;5091412;28;20060;-73
2022/08/09 16:43:08;;;;;;;;;;;;;;;-145.18;100.00;46937.78;5092005;28;19920;-73
2022/08/09 16:45:34;;;;;;;;;;;;;;;-145.18;100.00;46965.13;5091200;28;20285;-73
2022/08/09 16:47:59;;;;;;;;;;;;;;;-145.18;100.00;46978.81;5091747;28;19916;-72
2022/08/09 16:50:26;;;;;;;;;;;;;;;-145.18;100.00;46978.81;5090985;28;19961;-72
2022/08/09 16:52:51;;;;;;;;;;;;;;;-145.18;100.00;46976.84;5091835;28;19920;-72
2022/08/09 16:55:16;;;;;;;;;;;;;;;-145.18;100.00;46986.63;5090957;28;19926;-72
2022/08/09 16:57:42;;;;;;;;;;;;;;;-145.18;100.00;46994.44;5091842;28;19960;-72
2022/08/09 17:00:09;;;;;;;;;;;;;;;-145.18;100.00;46990.53;5091162;28;20303;-72
2022/08/09 17:02:37;;;;;;;;;;;;;;;-145.18;100.00;47004.19;5091027;28;20015;-72
2022/08/09 17:05:03;;;;;;;;;;;;;;;-145.18;100.00;47004.19;5091266;28;19924;-72
2022/08/09 17:07:28;;;;;;;;;;;;;;;-145.18;100.00;47010.06;5091586;28;19985;-72
2022/08/09 17:09:54;;;;;;;;;;;;;;;-145.18;100.00;47012.00;5090911;28;20464;-72
2022/08/09 17:12:19;;;;;;;;;;;;;;;-145.18;100.00;47008.09;5091175;28;19926;-72
2022/08/09 17:14:44;;;;;;;;;;;;;;;-145.18;100.00;47006.16;5090915;28;19924;-72
2022/08/09 17:17:10;;;;;;;;;;;;;;;-145.18;100.00;47008.09;5090252;28;19951;-73
2022/08/09 17:19:35;;;;;;;;;;;;;;;-145.18;100.00;47000.28;5090673;28;20623;-72
2022/08/09 17:22:00;;;;;;;;;;;;;;;-145.18;100.00;47017.88;5091720;28;19955;-72
2022/08/09 17:24:26;;;;;;;;;;;;;;;-145.18;100.00;47031.53;5091158;28;19912;-72
2022/08/09 17:26:51;;;;;;;;;;;;;;;-145.18;100.00;47045.22;5090947;28;20376;-72
2022/08/09 17:29:16;;;;;;;;;;;;;;;-145.18;100.00;47043.28;5091145;28;19924;-72
2022/08/09 17:31:41;;;;;;;;;;;;;;;-145.18;100.00;47056.94;5090769;28;19967;-72
2022/08/09 17:34:07;;;;;;;;;;;;;;;-145.18;100.00;47076.47;5090748;28;19924;-72
2022/08/09 17:36:32;;;;;;;;;;;;;;;-145.18;100.00;47082.34;5090451;28;20421;-72
2022/08/09 17:38:57;;;;;;;;;;;;;;;-145.18;100.00;47094.06;5091110;28;19920;-72
2022/08/09 17:41:22;;;;;;;;;;;;;;;-145.18;100.00;47121.41;5090523;28;20077;-72
2022/08/09 17:43:48;;;;;;;;;;;;;;;-145.18;100.00;47097.97;5090910;28;19927;-72
2022/08/09 17:46:13;;;;;;;;;;;;;;;-145.18;100.00;47101.88;5090525;28;19927;-72
2022/08/09 17:48:39;;;;;;;;;;;;;;;-145.18;100.00;47123.38;5091031;28;19916;-72
2022/08/09 17:51:06;;;;;;;;;;;;;;;-145.18;100.00;47115.56;5090733;28;19920;-72
2022/08/09 17:53:31;;;;;;;;;;;;;;;-145.18;100.00;47127.28;5090853;28;19928;-72
2022/08/09 17:55:56;;;;;;;;;;;;;;;-145.18;100.00;47123.38;5090524;28;20140;-72
2022/08/09 17:58:21;;;;;;;;;;;;;;;-145.18;100.00;47062.81;5090881;28;19920;-72
2022/08/09 18:00:47;;;;;;;;;;;;;;;-145.18;100.00;47053.03;5090466;28;19920;-72
2022/08/09 18:03:12;;;;;;;;;;;;;;;-145.18;100.00;47019.81;5091235;28;19926;-72
2022/08/09 18:05:38;;;;;;;;;;;;;;;-145.18;100.00;47013.97;5090179;28;20456;-72
2022/08/09 18:08:04;;;;;;;;;;;;;;;-145.18;100.00;47023.72;5090902;28;19954;-72
2022/08/09 18:10:30;;;;;;;;;;;;;;;-145.18;100.00;47043.28;5090310;28;19920;-72
2022/08/09 18:12:55;;;;;;;;;;;;;;;-145.18;100.00;47082.34;5091015;28;19923;-72
2022/08/09 18:15:21;;;;;;;;;;;;;;;-145.18;100.00;47092.09;5090118;28;19920;-72
2022/08/09 18:17:46;;;;;;;;;;;;;;;-145.18;100.00;47099.91;5090823;28;19951;-72
2022/08/09 18:20:11;;;;;;;;;;;;;;;-145.18;100.00;47101.88;5090537;28;19916;-72
2022/08/09 18:22:37;;;;;;;;;;;;;;;-145.18;100.00;47094.06;5093576;28;20030;-72
2022/08/09 18:25:03;;;;;;;;;;;;;;;-145.18;100.00;47115.56;5094075;28;19920;-72
2022/08/09 18:27:29;;;;;;;;;;;;;;;-145.18;100.00;47109.69;5094635;28;19920;-71
2022/08/09 18:29:55;;;;;;;;;;;;;;;-145.18;100.00;47086.25;5093869;28;20312;-72
2022/08/09 18:32:20;;;;;;;;;;;;;;;-145.18;100.00;47119.47;5094345;28;19927;-72
2022/08/09 18:34:45;;;;;;;;;;;;;;;-145.18;100.00;47160.47;5094034;28;20044;-72
2022/08/09 18:37:10;;;;;;;;;;;;;;;-145.18;100.00;47170.25;5094596;28;19927;-72
2022/08/09 18:39:37;;;;;;;;;;;;;;;-145.18;100.00;47113.59;5094172;28;19922;-72
2022/08/09 18:42:04;;;;;;;;;;;;;;;-145.18;100.00;47103.81;5094019;28;19935;-72
2022/08/09 18:44:30;;;;;;;;;;;;;;;-145.18;100.00;47064.75;5094334;28;19955;-72
2022/08/09 18:46:57;;;;;;;;;;;;;;;-145.18;100.00;46742.44;5093711;28;19974;-72
2022/08/09 18:49:22;;;;;;;;;;;;;;;-145.18;100.00;46656.50;5093986;28;19916;-72
2022/08/09 18:51:47;;;;;;;;;;;;;;;-145.18;100.00;46584.22;5093767;28;20011;-72
2022/08/09 18:54:12;;;;;;;;;;;;;;;-145.18;100.00;46541.25;5094013;28;19924;-72
2022/08/09 18:56:38;;;;;;;;;;;;;;;-145.18;100.00;46890.91;5093331;28;20028;-72
2022/08/09 18:59:03;;;;;;;;;;;;;;;-145.18;100.00;46840.09;5093925;28;20007;-72
2022/08/09 19:01:28;;;;;;;;;;;;;;;-145.18;100.00;47094.06;5093389;28;19920;-72
2022/08/09 19:03:54;;;;;;;;;;;;;;;-145.18;100.00;47055.00;5093779;28;19924;-72
2022/08/09 19:06:19;;;;;;;;;;;;;;;-145.18;100.00;46760.00;5093187;28;19928;-72
2022/08/09 19:08:44;;;;;;;;;;;;;;;-145.18;100.00;46584.22;5093773;28;19965;-72
2022/08/09 19:11:10;;;;;;;;;;;;;;;-145.18;100.00;46570.53;5093349;28;20303;-72
2022/08/09 19:13:35;;;;;;;;;;;;;;;-145.18;100.00;46568.59;5093660;28;19965;-72
2022/08/09 19:16:00;;;;;;;;;;;;;;;-145.18;100.00;46551.00;5093222;28;20022;-71
2022/08/09 19:18:25;;;;;;;;;;;;;;;-145.18;100.00;46547.09;5093419;28;20026;-71
2022/08/09 19:20:51;;;;;;;;;;;;;;;-145.18;100.00;46545.16;5093114;28;19921;-71
2022/08/09 19:23:18;;;;;;;;;;;;;;;-145.18;100.00;46535.38;5093119;28;19927;-71
2022/08/09 19:25:43;;;;;;;;;;;;;;;-145.18;100.00;46533.44;5093181;28;19916;-72
2022/08/09 19:28:09;;;;;;;;;;;;;;;-145.18;100.00;46539.28;5093522;28;19926;-71
2022/08/09 19:30:34;;;;;;;;;;;;;;;-145.18;100.00;46537.34;5092644;28;19935;-72
2022/08/09 19:32:59;;;;;;;;;;;;;;;-145.18;100.00;46539.28;5093207;28;19931;-72
2022/08/09 19:35:25;;;;;;;;;;;;;;;-145.18;100.00;46547.09;5092187;28;20374;-72
2022/08/09 19:37:51;;;;;;;;;;;;;;;-145.18;100.00;46535.38;5093299;28;19920;-71
2022/08/09 19:40:16;;;;;;;;;;;;;;;-145.18;100.00;46545.16;5092831;28;20471;-71
2022/08/09 19:42:41;;;;;;;;;;;;;;;-145.18;100.00;46543.19;5092743;28;20459;-72
2022/08/09 19:45:07;;;;;;;;;;;;;;;-145.18;100.00;46543.19;5092907;28;19924;-71
2022/08/09 19:47:32;;;;;;;;;;;;;;;-145.18;100.00;46547.09;5092787;28;20384;-71
2022/08/09 19:49:58;;;;;;;;;;;;;;;-145.18;100.00;46545.16;5092828;28;19928;-71
2022/08/09 19:52:23;;;;;;;;;;;;;;;-145.18;100.00;46545.16;5092394;28;19916;-72
2022/08/09 19:54:48;;;;;;;;;;;;;;;-145.18;100.00;46539.28;5092783;28;19920;-71
2022/08/09 19:57:14;;;;;;;;;;;;;;;-145.18;100.00;46543.19;5090991;28;19920;-72
2022/08/09 19:59:39;;;;;;;;;;;;;;;-145.18;100.00;46543.19;5092660;28;20372;-72
2022/08/09 20:02:04;;;;;;;;;;;;;;;-145.18;100.00;46543.19;5092006;28;19971;-72
2022/08/09 20:04:30;;;;;;;;;;;;;;;-145.18;100.00;46554.91;5092774;28;19916;-72
2022/08/09 20:06:55;;;;;;;;;;;;;;;-145.18;100.00;46560.78;5092250;28;20010;-72
2022/08/09 20:09:21;;;;;;;;;;;;;;;-145.18;100.00;46576.41;5092207;28;20324;-71
2022/08/09 20:11:46;;;;;;;;;;;;;;;-145.18;100.00;46625.22;5092222;28;19923;-71
2022/08/09 20:14:12;;;;;;;;;;;;;;;-145.18;100.00;46631.09;5092541;28;19923;-71
2022/08/09 20:16:38;;;;;;;;;;;;;;;-145.18;100.00;46640.88;5091691;28;19924;-71
2022/08/09 20:19:03;;;;;;;;;;;;;;;-145.18;100.00;46642.81;5092387;28;19943;-71
2022/08/09 20:21:28;;;;;;;;;;;;;;;-145.18;100.00;46650.63;5091678;28;19920;-71
2022/08/09 20:23:53;;;;;;;;;;;;;;;-145.18;100.00;46658.44;5092341;28;20027;-71
2022/08/09 20:26:19;;;;;;;;;;;;;;;-145.18;100.00;46662.34;5091701;28;19997;-71
2022/08/09 20:28:44;;;;;;;;;;;;;;;-145.18;100.00;46664.31;5092275;28;19962;-72
2022/08/09 20:31:09;;;;;;;;;;;;;;;-145.18;100.00;46664.31;5091614;28;19924;-71
2022/08/09 20:33:34;;;;;;;;;;;;;;;-145.18;100.00;46677.97;5091768;28;19924;-71
2022/08/09 20:36:00;;;;;;;;;;;;;;;-145.18;100.00;46674.06;5091533;28;20354;-71
2022/08/09 20:38:25;;;;;;;;;;;;;;;-145.18;100.00;46674.06;5091746;28;19927;-72
2022/08/09 20:40:50;;;;;;;;;;;;;;;-145.18;100.00;46672.13;5091624;28;19920;-71
2022/08/09 20:43:15;;;;;;;;;;;;;;;-145.18;100.00;46676.03;5091649;28;19920;-72
2022/08/09 20:45:41;;;;;;;;;;;;;;;-145.18;100.00;46666.25;5091026;28;20434;-71
2022/08/09 20:48:06;;;;;;;;;;;;;;;-145.18;100.00;46672.13;5091950;28;20383;-72
2022/08/09 20:50:31;;;;;;;;;;;;;;;-145.18;100.00;46676.03;5089798;28;19927;-71
2022/08/09 20:52:57;;;;;;;;;;;;;;;-145.18;100.00;46670.16;5091720;28;19974;-72
2022/08/09 20:55:22;;;;;;;;;;;;;;;-145.18;100.00;46666.25;5090883;28;19928;-71
2022/08/09 20:57:47;;;;;;;;;;;;;;;-145.18;100.00;46672.13;5091815;28;19924;-72
2022/08/09 21:00:13;;;;;;;;;;;;;;;-145.18;100.00;46674.06;5091632;28;20641;-72
2022/08/09 21:02:38;;;;;;;;;;;;;;;-145.18;100.00;46666.25;5091017;28;20372;-72
2022/08/09 21:05:04;;;;;;;;;;;;;;;-145.18;100.00;46662.34;5091549;28;19920;-71
2022/08/09 21:07:29;;;;;;;;;;;;;;;-145.18;100.00;46668.22;5090972;28;19920;-71
2022/08/09 21:09:55;;;;;;;;;;;;;;;-145.18;100.00;46664.31;5091624;28;19917;-72
2022/08/09 21:12:20;;;;;;;;;;;;;;;-145.18;100.00;46664.31;5090842;28;20019;-71
2022/08/09 21:14:46;;;;;;;;;;;;;;;-145.18;100.00;46666.25;5091206;28;19920;-72
2022/08/09 21:17:11;;;;;;;;;;;;;;;-145.18;100.00;46666.25;5091225;28;19923;-71
2022/08/09 21:19:39;;;;;;;;;;;;;;;-145.18;100.00;46666.25;5091172;28;20373;-71
2022/08/09 21:22:05;;;;;;;;;;;;;;;-145.18;100.00;46664.31;5090828;28;19924;-72
2022/08/09 21:24:31;;;;;;;;;;;;;;;-145.18;100.00;46668.22;5089895;28;19917;-72
2022/08/09 21:26:56;;;;;;;;;;;;;;;-145.18;100.00;46664.31;5090679;28;19916;-71
2022/08/09 21:29:21;;;;;;;;;;;;;;;-145.18;100.00;46662.34;5091133;28;19920;-72
2022/08/09 21:31:46;;;;;;;;;;;;;;;-145.18;100.00;46668.22;5090837;28;20036;-71
2022/08/09 21:34:12;;;;;;;;;;;;;;;-145.18;100.00;46664.31;5091120;28;19977;-72
2022/08/09 21:36:37;;;;;;;;;;;;;;;-145.18;100.00;46666.25;5090493;28;19927;-72
2022/08/09 21:39:03;;;;;;;;;;;;;;;-145.18;100.00;46668.22;5091133;28;20304;-71
2022/08/09 21:41:29;;;;;;;;;;;;;;;-145.18;100.00;46666.25;5090452;28;19924;-71
2022/08/09 21:43:55;;;;;;;;;;;;;;;-145.18;100.00;46666.25;5091009;28;19924;-71
2022/08/09 21:46:22;;;;;;;;;;;;;;;-145.18;100.00;46664.31;5090697;28;20035;-72
2022/08/09 21:48:48;;;;;;;;;;;;;;;-145.18;100.00;46666.25;5091198;28;20300;-72
2022/08/09 21:51:13;;;;;;;;;;;;;;;-145.18;100.00;46664.31;5090374;28;20031;-72
2022/08/09 21:53:38;;;;;;;;;;;;;;;-145.18;100.00;46668.22;5090840;28;20635;-71
2022/08/09 21:56:04;;;;;;;;;;;;;;;-145.18;100.00;46664.31;5091455;28;20618;-71
2022/08/09 21:58:29;;;;;;;;;;;;;;;-145.18;100.00;46660.41;5093651;28;20372;-71
2022/08/09 22:00:54;;;;;;;;;;;;;;;-145.18;100.00;46658.44;5094612;28;19935;-71
2022/08/09 22:03:20;;;;;;;;;;;;;;;-145.18;100.00;46662.34;5095015;28;19924;-71
2022/08/09 22:05:45;;;;;;;;;;;;;;;-145.18;100.00;46668.22;5094328;28;19924;-71
2022/08/09 22:08:12;;;;;;;;;;;;;;;-145.18;100.00;46666.25;5095000;28;19920;-71
2022/08/09 22:10:37;;;;;;;;;;;;;;;-145.18;100.00;46664.31;5094282;28;19981;-71
2022/08/09 22:13:03;;;;;;;;;;;;;;;-145.18;100.00;46664.31;5094683;28;19916;-71
2022/08/09 22:15:28;;;;;;;;;;;;;;;-145.18;100.00;46658.44;5094357;28;20296;-71
2022/08/09 22:17:53;;;;;;;;;;;;;;;-145.18;100.00;46656.50;5094527;28;19939;-71
2022/08/09 22:20:18;;;;;;;;;;;;;;;-145.18;100.00;46660.41;5094884;28;19924;-71
2022/08/09 22:22:44;;;;;;;;;;;;;;;-145.18;100.00;46660.41;5093939;28;19924;-72
2022/08/09 22:25:09;;;;;;;;;;;;;;;-145.18;100.00;46658.44;5094627;28;19970;-71
2022/08/09 22:27:34;;;;;;;;;;;;;;;-145.18;100.00;46664.31;5093936;28;20342;-71
2022/08/09 22:30:00;;;;;;;;;;;;;;;-145.18;100.00;46666.25;5094670;28;19923;-71
2022/08/09 22:32:25;;;;;;;;;;;;;;;-145.18;100.00;46664.31;5093760;28;20031;-71
2022/08/09 22:34:51;;;;;;;;;;;;;;;-145.18;100.00;46664.31;5094219;28;19924;-71
2022/08/09 22:37:16;;;;;;;;;;;;;;;-145.18;100.00;46670.16;5094050;28;19966;-71
2022/08/09 22:39:42;;;;;;;;;;;;;;;-145.18;100.00;46662.34;5094311;28;19920;-71
2022/08/09 22:42:07;;;;;;;;;;;;;;;-145.18;100.00;46666.25;5093823;28;19973;-71
2022/08/09 22:44:32;;;;;;;;;;;;;;;-145.18;100.00;46672.13;5092868;28;19966;-71
2022/08/09 22:46:57;;;;;;;;;;;;;;;-145.18;100.00;46672.13;5093799;28;19928;-71
2022/08/09 22:49:23;;;;;;;;;;;;;;;-145.18;100.00;46664.31;5093862;28;20394;-71
2022/08/09 22:51:48;;;;;;;;;;;;;;;-145.18;100.00;46666.25;5093604;28;19913;-71
2022/08/09 22:54:13;;;;;;;;;;;;;;;-145.18;100.00;46666.25;5093956;28;19920;-71
2022/08/09 22:56:38;;;;;;;;;;;;;;;-145.18;100.00;46668.22;5093422;28;19920;-70
2022/08/09 22:59:04;;;;;;;;;;;;;;;-145.18;100.00;46672.13;5093896;28;19920;-71
2022/08/09 23:01:30;;;;;;;;;;;;;;;-145.18;100.00;46674.06;5093265;28;20485;-71
2022/08/09 23:03:55;;;;;;;;;;;;;;;-145.18;100.00;46662.34;5093855;28;19927;-71
2022/08/09 23:06:21;;;;;;;;;;;;;;;-145.18;100.00;46672.13;5093301;28;20403;-72
2022/08/09 23:08:46;;;;;;;;;;;;;;;-145.18;100.00;46674.06;5093283;28;19920;-71
2022/08/09 23:11:19;;;;;;;;;;;;;;;-145.18;100.00;46670.16;5093351;28;20010;-71
2022/08/09 23:13:48;;;;;;;;;;;;;;;-145.18;100.00;46674.06;5093443;28;20384;-71
2022/08/09 23:16:15;;;;;;;;;;;;;;;-145.18;100.00;46670.16;5093164;28;20422;-71